Time;durP1;ratioP1;P1;durP2;ratioP2;P2;SDS_P1;SDS_P2;PMS_P1;PMS_P2;Temp;Humidity;BMP_temperature;BMP_pressure;BME280_temperature;BME280_humidity;BME280_pressure;Samples;Min_cycle;Max_cycle;Signal;HPM_P1;HPM_P2
2023/01/28 00:02:02;;;;;;;15.53;11.63;;;4.70;7.00;;;;;;5056696;28;20169;-68
2023/01/28 00:04:27;;;;;;;15.37;11.83;;;4.70;6.70;;;;;;5074671;28;20169;-68
2023/01/28 00:06:53;;;;;;;14.17;11.70;;;4.70;10.50;;;;;;5074164;28;20548;-68
2023/01/28 00:09:18;;;;;;;17.60;11.63;;;4.70;4.40;;;;;;5074548;28;20266;-68
2023/01/28 00:11:44;;;;;;;14.60;11.03;;;4.70;7.00;;;;;;5074402;28;20179;-68
2023/01/28 00:14:11;;;;;;;14.23;10.17;;;4.70;5.30;;;;;;5074208;28;20595;-68
2023/01/28 00:16:37;;;;;;;15.50;11.87;;;4.60;2.70;;;;;;5074531;28;20168;-68
2023/01/28 00:19:02;;;;;;;14.97;11.90;;;4.60;4.90;;;;;;5074291;28;20521;-67
2023/01/28 00:21:28;;;;;;;15.20;11.97;;;4.60;5.50;;;;;;5073336;28;20180;-68
2023/01/28 00:23:55;;;;;;;15.33;11.93;;;4.60;7.90;;;;;;5074317;28;20179;-68
2023/01/28 00:26:22;;;;;;;14.40;11.90;;;4.60;8.80;;;;;;5074102;28;20211;-69
2023/01/28 00:28:47;;;;;;;15.17;10.80;;;4.60;8.50;;;;;;5073988;28;20157;-68
2023/01/28 00:31:33;;;;;;;15.73;12.20;;;4.60;9.10;;;;;;5074270;28;20176;-68
2023/01/28 00:33:59;;;;;;;15.10;11.20;;;4.60;9.00;;;;;;5074091;28;20165;-67
2023/01/28 00:36:26;;;;;;;14.37;11.63;;;4.60;12.50;;;;;;5073691;28;20175;-68
2023/01/28 00:38:54;;;;;;;16.13;12.57;;;4.50;15.70;;;;;;5073801;28;20199;-68
2023/01/28 00:41:22;;;;;;;14.33;11.17;;;4.50;16.00;;;;;;5073723;28;20180;-68
2023/01/28 00:43:48;;;;;;;15.80;11.73;;;4.60;17.60;;;;;;5074273;28;20200;-69
2023/01/28 00:46:14;;;;;;;15.93;11.53;;;4.50;14.20;;;;;;5073974;28;20303;-69
2023/01/28 00:48:41;;;;;;;14.03;11.13;;;4.50;16.80;;;;;;5073888;28;20203;-68
2023/01/28 00:51:08;;;;;;;14.20;10.77;;;4.50;18.30;;;;;;5073571;28;20687;-68
2023/01/28 00:53:35;;;;;;;13.90;10.40;;;4.50;14.40;;;;;;5073564;28;20224;-67
2023/01/28 00:56:02;;;;;;;12.87;10.67;;;4.50;14.10;;;;;;5073723;28;20234;-68
2023/01/28 00:58:28;;;;;;;13.47;10.80;;;4.50;13.60;;;;;;5073733;28;20179;-67
2023/01/28 01:00:53;;;;;;;13.73;10.47;;;4.50;15.50;;;;;;5073694;28;20169;-67
2023/01/28 01:03:19;;;;;;;13.50;10.50;;;4.40;16.10;;;;;;5073425;28;20183;-67
2023/01/28 01:05:45;;;;;;;12.77;10.13;;;4.40;14.30;;;;;;5073513;28;20165;-68
2023/01/28 01:08:11;;;;;;;14.20;10.57;;;4.40;14.80;;;;;;5073411;28;20184;-68
2023/01/28 01:10:37;;;;;;;13.10;11.27;;;4.50;15.00;;;;;;5073551;28;20699;-68
2023/01/28 01:13:04;;;;;;;12.87;9.93;;;4.50;13.40;;;;;;5073397;28;20268;-68
2023/01/28 01:15:30;;;;;;;12.53;10.40;;;4.50;13.10;;;;;;5073622;28;20176;-67
2023/01/28 01:17:57;;;;;;;11.63;9.80;;;4.50;9.40;;;;;;5073130;28;20168;-68
2023/01/28 01:20:26;;;;;;;13.53;10.67;;;4.50;10.60;;;;;;5073591;28;20177;-67
2023/01/28 01:22:52;;;;;;;12.90;10.40;;;4.50;12.10;;;;;;5073380;28;20651;-68
2023/01/28 01:25:18;;;;;;;13.67;11.00;;;4.50;11.60;;;;;;5073339;28;20172;-68
2023/01/28 01:27:47;;;;;;;16.00;11.43;;;4.50;14.60;;;;;;5073216;28;20213;-68
2023/01/28 01:30:13;;;;;;;16.03;12.03;;;4.50;13.20;;;;;;5073181;28;20182;-68
2023/01/28 01:32:39;;;;;;;16.93;12.53;;;4.60;13.50;;;;;;5073037;28;20165;-68
2023/01/28 01:35:07;;;;;;;17.00;12.50;;;4.60;11.80;;;;;;5073257;28;20263;-66
2023/01/28 01:37:33;;;;;;;16.07;12.33;;;4.70;14.70;;;;;;5073039;28;20268;-68
2023/01/28 01:40:00;;;;;;;17.37;12.57;;;4.80;11.10;;;;;;5073058;28;20282;-68
2023/01/28 01:42:27;;;;;;;15.97;12.13;;;4.80;8.30;;;;;;5055178;28;20263;-68
2023/01/28 01:44:58;;;;;;;15.80;12.67;;;4.90;6.20;;;;;;5073336;28;20255;-68
2023/01/28 01:47:31;;;;;;;16.67;12.63;;;4.90;7.60;;;;;;5072738;28;20215;-67
2023/01/28 01:50:00;;;;;;;16.13;12.50;;;4.80;5.00;;;;;;5073100;28;20168;-68
2023/01/28 01:52:32;;;;;;;16.53;12.37;;;4.80;7.90;;;;;;5072906;28;20216;-68
2023/01/28 01:55:02;;;;;;;17.93;12.43;;;4.90;5.80;;;;;;5073130;28;20183;-68
2023/01/28 01:57:32;;;;;;;14.33;11.37;;;4.80;3.10;;;;;;5073181;28;20417;-68
2023/01/28 02:00:04;;;;;;;15.23;12.07;;;4.80;1.70;;;;;;5073048;28;20168;-67
2023/01/28 02:02:39;;;;;;;16.27;11.87;;;4.80;4.30;;;;;;5072541;28;20241;-68
2023/01/28 02:05:07;;;;;;;16.13;11.87;;;4.60;2.70;;;;;;5072962;28;20164;-68
2023/01/28 02:07:33;;;;;;;17.60;12.87;;;4.70;7.10;;;;;;5072718;28;20236;-68
2023/01/28 02:09:59;;;;;;;16.93;12.13;;;4.80;6.70;;;;;;5072890;28;20168;-68
2023/01/28 02:12:39;;;;;;;15.43;11.70;;;4.90;3.50;;;;;;5072853;28;20165;-68
2023/01/28 02:15:14;;;;;;;15.77;12.10;;;4.80;1.00;;;;;;5072696;28;20184;-66
2023/01/28 02:17:41;;;;;;;14.33;11.40;;;4.70;1.00;;;;;;5072668;28;20295;-66
2023/01/28 02:20:10;;;;;;;14.57;11.60;;;4.70;3.30;;;;;;5072791;28;20173;-67
2023/01/28 02:22:54;;;;;;;16.97;12.13;;;4.70;2.50;;;;;;5072774;28;20218;-68
2023/01/28 02:25:41;;;;;;;17.10;12.20;;;4.70;1.90;;;;;;5072717;28;20164;-67
2023/01/28 02:28:36;;;;;;;15.10;11.70;;;4.80;1.00;;;;;;5073034;28;20242;-68
2023/01/28 02:31:20;;;;;;;16.93;11.80;;;4.70;1.00;;;;;;5072621;28;20169;-68
2023/01/28 02:34:00;;;;;;;14.80;11.37;;;4.70;1.00;;;;;;5073336;28;20207;-67
2023/01/28 02:36:42;;;;;;;15.33;11.83;;;4.60;1.00;;;;;;5072836;28;20175;-67
2023/01/28 02:39:14;;;;;;;16.77;11.70;;;4.50;5.00;;;;;;5072456;28;20181;-67
2023/01/28 02:41:46;;;;;;;17.67;11.93;;;4.50;5.40;;;;;;5072573;28;20176;-68
2023/01/28 02:44:12;;;;;;;15.57;11.90;;;4.50;5.60;;;;;;5073921;28;20222;-68
2023/01/28 02:49:35;;;;;;;16.37;11.93;;;4.70;3.50;;;;;;5047263;28;20176;-66
2023/01/28 02:55:28;;;;;;;17.73;11.63;;;4.70;1.00;;;;;;5076158;28;20180;-67
2023/01/28 02:58:11;;;;;;;15.53;11.23;;;4.80;1.00;;;;;;5076022;28;20203;-67
2023/01/28 03:01:02;;;;;;;16.57;12.03;;;4.50;1.00;;;;;;5075848;28;20262;-68
2023/01/28 03:03:32;;;;;;;16.73;11.80;;;4.50;7.30;;;;;;5076045;28;20169;-68
2023/01/28 03:06:06;;;;;;;16.30;12.13;;;4.60;7.40;;;;;;5075980;28;20283;-68
2023/01/28 03:36:49;;;;;;;16.00;11.30;;;4.60;1.00;;;;;;5075274;28;20195;-67
2023/01/28 03:39:36;;;;;;;17.10;12.73;;;4.50;1.00;;;;;;5075091;28;20196;-67
2023/01/28 03:42:08;;;;;;;15.10;11.30;;;4.50;1.00;;;;;;5074629;28;20177;-68
2023/01/28 03:44:52;;;;;;;16.53;12.20;;;4.50;1.00;;;;;;5074793;28;20204;-68
2023/01/28 03:47:25;;;;;;;16.27;11.57;;;4.60;1.00;;;;;;5074896;28;20215;-67
2023/01/28 03:49:53;;;;;;;16.27;11.83;;;4.50;1.00;;;;;;5075035;28;20172;-67
2023/01/28 03:52:30;;;;;;;16.47;12.03;;;4.40;1.00;;;;;;5074740;28;20279;-68
2023/01/28 03:54:56;;;;;;;15.77;11.00;;;4.40;1.00;;;;;;5074108;28;20259;-67
2023/01/28 03:57:25;;;;;;;15.73;11.43;;;4.30;1.00;;;;;;5074101;28;20264;-68
2023/01/28 03:59:52;;;;;;;14.70;10.93;;;4.30;1.00;;;;;;5056820;28;20173;-67
2023/01/28 04:02:20;;;;;;;15.47;11.00;;;4.40;1.00;;;;;;5075086;28;20177;-68
2023/01/28 04:04:46;;;;;;;15.47;10.77;;;4.30;1.00;;;;;;5074576;28;20172;-67
2023/01/28 04:07:15;;;;;;;16.40;11.50;;;4.20;1.00;;;;;;5074458;28;20266;-67
2023/01/28 04:09:42;;;;;;;15.00;9.70;;;4.20;1.00;;;;;;5074367;28;20173;-67
2023/01/28 04:12:08;;;;;;;16.23;11.03;;;4.20;1.00;;;;;;5074178;28;20521;-68
2023/01/28 04:14:34;;;;;;;17.17;11.23;;;4.10;1.00;;;;;;5074641;28;20267;-66
2023/01/28 04:16:59;;;;;;;14.93;10.07;;;4.00;1.00;;;;;;5056630;28;20204;-68
2023/01/28 04:19:26;;;;;;;14.87;10.57;;;3.90;1.00;;;;;;5074516;28;20260;-68
2023/01/28 04:21:55;;;;;;;14.00;9.77;;;4.00;1.00;;;;;;5074526;28;20173;-67
2023/01/28 04:24:22;;;;;;;13.07;9.63;;;4.00;1.00;;;;;;5074284;28;20172;-68
2023/01/28 04:26:47;;;;;;;15.87;10.87;;;4.00;1.00;;;;;;5073739;28;20208;-67
2023/01/28 04:29:13;;;;;;;15.10;10.60;;;4.00;1.00;;;;;;5074124;28;20636;-68
2023/01/28 04:31:38;;;;;;;16.27;10.83;;;3.90;1.00;;;;;;5074271;28;20191;-67
2023/01/28 04:34:04;;;;;;;14.37;9.97;;;4.00;1.00;;;;;;5074182;28;20628;-67
2023/01/28 04:36:29;;;;;;;15.10;10.30;;;3.90;1.00;;;;;;5073934;28;20641;-67
2023/01/28 04:38:55;;;;;;;15.73;10.80;;;3.90;1.00;;;;;;5073882;28;20189;-67
2023/01/28 04:41:21;;;;;;;14.80;10.07;;;3.90;1.00;;;;;;5073652;28;20172;-67
2023/01/28 04:43:48;;;;;;;15.30;10.57;;;3.90;1.00;;;;;;5073911;28;20214;-67
2023/01/28 04:46:14;;;;;;;16.47;11.40;;;4.00;1.00;;;;;;5073639;28;20200;-68
2023/01/28 04:48:40;;;;;;;15.83;11.03;;;4.00;1.00;;;;;;5073789;28;20629;-68
2023/01/28 04:51:06;;;;;;;17.07;12.13;;;4.10;1.00;;;;;;5073925;28;20238;-67
2023/01/28 04:53:32;;;;;;;20.93;12.37;;;4.20;1.00;;;;;;5073697;28;20212;-68
2023/01/28 04:55:58;;;;;;;17.07;12.23;;;4.30;1.00;;;;;;5073303;28;20168;-68
2023/01/28 04:58:24;;;;;;;17.47;12.60;;;4.20;1.00;;;;;;5073653;28;20605;-68
2023/01/28 05:00:57;;;;;;;17.10;12.37;;;4.20;1.00;;;;;;5073642;28;20577;-68
2023/01/28 05:03:23;;;;;;;17.33;12.37;;;4.30;1.00;;;;;;5073824;28;20214;-68
2023/01/28 05:05:49;;;;;;;20.23;11.87;;;4.30;1.00;;;;;;5073133;28;20693;-67
2023/01/28 05:08:15;;;;;;;15.80;12.03;;;4.20;1.00;;;;;;5073325;28;20194;-68
2023/01/28 05:10:41;;;;;;;15.53;11.50;;;4.20;1.00;;;;;;5073343;28;20168;-66
2023/01/28 05:13:07;;;;;;;22.40;14.10;;;4.20;1.00;;;;;;5073564;28;20505;-68
2023/01/28 05:15:32;;;;;;;20.17;12.60;;;4.30;1.00;;;;;;5073657;28;20169;-67
2023/01/28 05:17:58;;;;;;;17.73;12.27;;;4.10;1.00;;;;;;5073483;28;20173;-66
2023/01/28 05:20:24;;;;;;;15.83;12.07;;;4.10;1.00;;;;;;5073331;28;20176;-68
2023/01/28 05:22:50;;;;;;;18.03;12.20;;;4.10;1.00;;;;;;5073405;28;20230;-67
2023/01/28 05:25:16;;;;;;;15.77;12.00;;;4.20;1.00;;;;;;5072984;28;20172;-67
2023/01/28 05:27:41;;;;;;;14.80;11.53;;;4.20;1.00;;;;;;5073446;28;20212;-67
2023/01/28 05:30:08;;;;;;;16.30;11.97;;;4.10;1.00;;;;;;5073408;28;20176;-68
2023/01/28 05:32:33;;;;;;;17.43;11.80;;;4.00;1.00;;;;;;5073408;28;20180;-67
2023/01/28 05:34:59;;;;;;;16.23;11.87;;;4.00;1.00;;;;;;5055152;28;20172;-68
2023/01/28 05:37:24;;;;;;;14.90;11.30;;;4.00;1.00;;;;;;5073216;28;20172;-67
2023/01/28 05:39:50;;;;;;;16.27;11.77;;;3.90;1.00;;;;;;5072832;28;20253;-67
2023/01/28 05:42:17;;;;;;;15.40;11.40;;;3.90;1.00;;;;;;5073038;28;20168;-67
2023/01/28 05:44:43;;;;;;;15.97;12.03;;;3.90;1.00;;;;;;5073236;28;20187;-67
2023/01/28 05:47:08;;;;;;;15.90;11.10;;;3.90;1.00;;;;;;5073050;28;20575;-67
2023/01/28 05:49:34;;;;;;;14.60;11.07;;;4.00;1.00;;;;;;5072779;28;20234;-73
2023/01/28 05:52:00;;;;;;;14.07;11.07;;;4.00;1.00;;;;;;5072655;28;20231;-68
2023/01/28 05:54:27;;;;;;;15.53;11.13;;;3.90;1.00;;;;;;5072673;28;20694;-68
2023/01/28 05:56:53;;;;;;;15.93;11.47;;;3.90;1.00;;;;;;5072829;28;20169;-68
2023/01/28 05:59:18;;;;;;;16.20;11.40;;;3.90;1.00;;;;;;5072955;28;20563;-68
2023/01/28 06:01:44;;;;;;;15.60;11.43;;;3.90;1.00;;;;;;5073010;28;20180;-68
2023/01/28 06:04:10;;;;;;;15.40;11.23;;;3.90;1.00;;;;;;5072744;28;20245;-67
2023/01/28 06:06:35;;;;;;;15.37;10.90;;;3.90;1.00;;;;;;5072900;28;20656;-67
2023/01/28 06:09:01;;;;;;;17.23;11.27;;;4.00;1.00;;;;;;5054427;28;20177;-68
2023/01/28 06:11:27;;;;;;;16.17;10.97;;;4.00;1.00;;;;;;5072783;28;20250;-67
2023/01/28 06:13:52;;;;;;;15.17;11.47;;;4.00;1.00;;;;;;5072732;28;20236;-67
2023/01/28 06:16:18;;;;;;;14.33;11.10;;;4.00;1.00;;;;;;5072821;28;20196;-68
2023/01/28 06:18:43;;;;;;;15.17;10.93;;;4.00;1.00;;;;;;5055140;28;20254;-67
2023/01/28 06:21:09;;;;;;;16.80;12.20;;;4.00;1.00;;;;;;5077000;28;20173;-73
2023/01/28 06:23:35;;;;;;;13.80;10.43;;;3.80;1.00;;;;;;5076314;28;20186;-70
2023/01/28 06:26:01;;;;;;;14.10;10.50;;;3.80;1.00;;;;;;5076653;28;20209;-67
2023/01/28 06:28:27;;;;;;;14.63;10.37;;;3.80;1.00;;;;;;5076482;28;20173;-68
2023/01/28 06:30:52;;;;;;;14.60;10.80;;;3.70;1.00;;;;;;5076892;28;20620;-67
2023/01/28 06:33:19;;;;;;;15.00;10.43;;;3.60;1.00;;;;;;5058803;28;20222;-68
2023/01/28 06:35:45;;;;;;;13.87;10.37;;;3.70;1.00;;;;;;5076500;28;20177;-69
2023/01/28 06:38:11;;;;;;;14.30;10.20;;;3.60;1.00;;;;;;5076170;28;20283;-68
2023/01/28 06:40:37;;;;;;;15.83;10.90;;;3.60;1.00;;;;;;5076566;28;20331;-68
2023/01/28 06:43:04;;;;;;;14.53;10.40;;;3.40;1.00;;;;;;5076759;28;20233;-68
2023/01/28 06:45:31;;;;;;;14.43;11.07;;;3.40;1.00;;;;;;5076243;28;20177;-67
2023/01/28 06:47:56;;;;;;;13.67;9.40;;;3.40;1.00;;;;;;5076149;28;20659;-67
2023/01/28 06:50:22;;;;;;;14.90;10.53;;;3.40;1.00;;;;;;5076227;28;20173;-67
2023/01/28 06:52:48;;;;;;;15.47;10.20;;;3.30;1.00;;;;;;5065500;28;20232;-68
2023/01/28 06:55:13;;;;;;;14.80;11.13;;;3.30;1.00;;;;;;5076062;28;20341;-67
2023/01/28 06:57:40;;;;;;;17.67;11.43;;;3.30;1.00;;;;;;5075936;28;20263;-68
2023/01/28 07:00:09;;;;;;;14.30;8.90;;;3.30;1.00;;;;;;5076070;28;20164;-68
2023/01/28 07:02:35;;;;;;;14.87;10.70;;;3.30;1.00;;;;;;5075736;28;20210;-70
2023/01/28 07:05:01;;;;;;;14.50;9.87;;;3.20;1.00;;;;;;5075799;28;20632;-69
2023/01/28 07:07:27;;;;;;;14.77;10.93;;;3.20;1.00;;;;;;5075446;28;20208;-67
2023/01/28 07:09:52;;;;;;;16.00;10.77;;;3.20;1.00;;;;;;5075618;28;20251;-68
2023/01/28 07:12:18;;;;;;;14.83;11.33;;;3.20;1.00;;;;;;5075579;28;20647;-68
2023/01/28 07:14:44;;;;;;;15.33;10.57;;;3.20;1.00;;;;;;5075519;28;20173;-67
2023/01/28 07:17:09;;;;;;;14.90;11.20;;;3.20;1.00;;;;;;5075661;28;20196;-68
2023/01/28 07:19:35;;;;;;;16.03;11.20;;;3.20;1.00;;;;;;5074488;28;20222;-68
2023/01/28 07:22:02;;;;;;;14.10;10.10;;;3.20;1.00;;;;;;5075414;28;20168;-68
2023/01/28 07:24:28;;;;;;;15.53;10.73;;;3.20;1.00;;;;;;5075424;28;20180;-68
2023/01/28 07:26:54;;;;;;;17.40;10.90;;;3.10;1.00;;;;;;5075075;28;20212;-67
2023/01/28 07:29:20;;;;;;;13.33;9.50;;;3.10;1.00;;;;;;5074884;28;20230;-68
2023/01/28 07:31:46;;;;;;;14.27;10.80;;;3.10;1.00;;;;;;5075082;28;20169;-67
2023/01/28 07:34:12;;;;;;;17.07;11.47;;;3.10;1.00;;;;;;5075524;28;20255;-68
2023/01/28 07:36:37;;;;;;;14.47;9.97;;;3.00;1.00;;;;;;5074837;28;20251;-68
2023/01/28 07:39:04;;;;;;;15.13;11.03;;;3.00;1.00;;;;;;5075228;28;20196;-68
2023/01/28 07:41:29;;;;;;;17.07;11.77;;;3.10;1.00;;;;;;5075340;28;20313;-68
2023/01/28 07:43:55;;;;;;;16.37;11.33;;;3.10;1.00;;;;;;5074720;28;20251;-66
2023/01/28 07:46:20;;;;;;;17.20;10.13;;;3.20;1.00;;;;;;5074629;28;20207;-68
2023/01/28 07:48:46;;;;;;;16.73;11.50;;;3.20;1.00;;;;;;5074896;28;20237;-68
2023/01/28 07:51:12;;;;;;;15.93;11.23;;;3.10;1.00;;;;;;5074646;28;20169;-68
2023/01/28 07:53:38;;;;;;;17.27;11.53;;;3.10;1.00;;;;;;5074749;28;20683;-68
2023/01/28 07:56:05;;;;;;;13.93;10.87;;;3.10;1.00;;;;;;5074892;28;20172;-68
2023/01/28 07:58:33;;;;;;;14.37;10.93;;;3.20;1.00;;;;;;5074837;28;20177;-67
2023/01/28 08:00:59;;;;;;;15.90;11.27;;;3.10;1.00;;;;;;5074300;28;20173;-68
2023/01/28 08:03:26;;;;;;;18.77;11.13;;;3.20;1.00;;;;;;5074637;28;20234;-68
2023/01/28 08:05:54;;;;;;;16.23;11.03;;;3.20;1.00;;;;;;5074193;28;20164;-68
2023/01/28 08:08:21;;;;;;;17.07;11.03;;;3.20;1.00;;;;;;5074527;28;20252;-68
2023/01/28 08:10:47;;;;;;;14.87;10.63;;;3.10;1.00;;;;;;5074645;28;20164;-68
2023/01/28 08:13:13;;;;;;;17.90;11.70;;;3.10;1.00;;;;;;5074456;28;20621;-68
2023/01/28 08:15:39;;;;;;;16.20;10.83;;;3.20;1.00;;;;;;5074517;28;20698;-67
2023/01/28 08:18:06;;;;;;;17.10;11.27;;;3.20;1.00;;;;;;5056550;28;20177;-67
2023/01/28 08:20:32;;;;;;;10.67;6.87;;;3.10;1.00;;;;;;5074057;28;20252;-68
2023/01/28 08:23:10;;;;;;;16.97;11.53;;;3.20;1.00;;;;;;5074202;28;20222;-68
2023/01/28 08:25:36;;;;;;;16.73;11.70;;;3.20;1.00;;;;;;5074333;28;20180;-68
2023/01/28 08:28:04;;;;;;;16.17;11.03;;;3.30;1.00;;;;;;5073970;28;20257;-68
2023/01/28 08:30:30;;;;;;;19.00;11.87;;;3.20;1.00;;;;;;5074112;28;20169;-68
2023/01/28 08:32:57;;;;;;;16.10;11.70;;;3.20;1.00;;;;;;5074003;28;20175;-69
2023/01/28 08:35:24;;;;;;;16.70;12.40;;;3.40;1.00;;;;;;5074000;28;20625;-68
2023/01/28 08:37:50;;;;;;;16.37;11.57;;;3.40;1.00;;;;;;5074005;28;20169;-69
2023/01/28 08:40:16;;;;;;;18.20;12.27;;;3.40;1.00;;;;;;5073867;28;20233;-68
2023/01/28 08:42:49;;;;;;;15.93;11.23;;;3.40;1.00;;;;;;5073150;28;20263;-68
2023/01/28 08:45:15;;;;;;;15.60;11.77;;;3.30;1.00;;;;;;5073880;28;20204;-68
2023/01/28 08:48:02;;;;;;;18.40;12.43;;;3.30;1.00;;;;;;5073696;28;20212;-68
2023/01/28 08:50:32;;;;;;;16.97;11.53;;;3.30;1.00;;;;;;5073550;28;20161;-68
2023/01/28 08:52:59;;;;;;;17.50;12.20;;;3.30;1.00;;;;;;5073364;28;20228;-68
2023/01/28 08:55:26;;;;;;;19.00;11.77;;;3.20;1.00;;;;;;5073635;28;20235;-68
2023/01/28 08:57:52;;;;;;;16.13;11.50;;;3.30;1.00;;;;;;5073560;28;20243;-68
2023/01/28 09:00:19;;;;;;;16.83;11.87;;;3.30;1.00;;;;;;5073556;28;20621;-68
2023/01/28 09:02:45;;;;;;;17.60;12.10;;;3.30;1.00;;;;;;5073150;28;20663;-68
2023/01/28 09:05:10;;;;;;;16.47;11.70;;;3.40;1.00;;;;;;5073457;28;20248;-68
2023/01/28 09:07:37;;;;;;;18.03;12.50;;;3.40;1.00;;;;;;5073429;28;20290;-68
2023/01/28 09:10:04;;;;;;;21.37;13.30;;;3.50;1.00;;;;;;5073364;28;20256;-67
2023/01/28 09:12:30;;;;;;;16.97;12.17;;;3.60;1.00;;;;;;5073806;28;20172;-68
2023/01/28 09:14:57;;;;;;;17.87;12.27;;;3.60;1.00;;;;;;5073271;28;20188;-68
2023/01/28 09:17:23;;;;;;;20.57;12.77;;;3.50;1.00;;;;;;5073239;28;20195;-66
2023/01/28 09:19:49;;;;;;;20.13;13.23;;;3.50;1.00;;;;;;5073376;28;20165;-68
2023/01/28 09:22:15;;;;;;;18.80;13.30;;;3.50;1.00;;;;;;5073339;28;20191;-68
2023/01/28 09:24:41;;;;;;;20.27;13.00;;;3.50;1.00;;;;;;5073411;28;20173;-68
2023/01/28 09:27:06;;;;;;;20.83;14.00;;;3.50;1.00;;;;;;5073142;28;20544;-68
2023/01/28 09:29:36;;;;;;;22.20;13.13;;;3.50;1.00;;;;;;5073028;28;20191;-67
2023/01/28 09:32:02;;;;;;;22.57;14.13;;;3.50;1.00;;;;;;5072539;28;20190;-68
2023/01/28 09:34:28;;;;;;;19.23;13.50;;;3.40;1.00;;;;;;5073170;28;20196;-68
2023/01/28 09:36:54;;;;;;;18.80;12.97;;;3.40;1.00;;;;;;5073132;28;20722;-68
2023/01/28 09:39:19;;;;;;;18.97;13.20;;;3.50;1.00;;;;;;5072942;28;20192;-68
2023/01/28 09:42:22;;;;;;;21.37;13.53;;;3.60;1.00;;;;;;5073219;28;20172;-66
2023/01/28 09:45:11;;;;;;;21.80;13.87;;;3.60;1.00;;;;;;5073161;28;20164;-68
2023/01/28 09:47:46;;;;;;;22.37;15.30;;;3.50;1.00;;;;;;5073062;28;20204;-67
2023/01/28 09:50:25;;;;;;;21.77;14.53;;;3.60;1.00;;;;;;5054791;28;20638;-68
2023/01/28 09:52:54;;;;;;;18.60;13.03;;;3.60;1.00;;;;;;5072739;28;20224;-68
2023/01/28 09:55:31;;;;;;;21.50;14.20;;;3.70;1.00;;;;;;5076032;28;20161;-68
2023/01/28 09:57:57;;;;;;;20.03;13.77;;;3.80;1.00;;;;;;5077247;28;20267;-69
2023/01/28 10:00:46;;;;;;;23.97;14.47;;;3.90;1.00;;;;;;5076730;28;20200;-68
2023/01/28 10:03:24;;;;;;;25.47;15.20;;;4.10;1.00;;;;;;5076994;28;20180;-68
2023/01/28 10:06:13;;;;;;;19.60;14.03;;;4.10;1.00;;;;;;5076437;28;20171;-68
2023/01/28 10:09:16;;;;;;;21.33;13.97;;;4.10;1.00;;;;;;5076632;28;20184;-68
2023/01/28 10:12:12;;;;;;;21.03;13.77;;;4.20;1.00;;;;;;5076758;28;20172;-69
2023/01/28 10:15:02;;;;;;;21.13;13.93;;;4.10;1.00;;;;;;5076415;28;20172;-68
2023/01/28 10:17:30;;;;;;;18.47;13.47;;;4.20;1.00;;;;;;5076705;28;20214;-68
2023/01/28 10:20:00;;;;;;;23.73;14.67;;;4.20;1.00;;;;;;5076584;28;20173;-68
2023/01/28 10:22:33;;;;;;;20.70;14.83;;;4.30;1.00;;;;;;5076596;28;20251;-68
2023/01/28 10:25:06;;;;;;;19.83;13.43;;;4.30;1.00;;;;;;5076609;28;20177;-69
2023/01/28 10:27:34;;;;;;;20.63;14.50;;;4.00;1.00;;;;;;5076593;28;20676;-69
2023/01/28 10:30:18;;;;;;;20.60;13.63;;;4.10;1.00;;;;;;5076248;28;20165;-68
2023/01/28 10:32:55;;;;;;;25.70;14.63;;;4.20;1.00;;;;;;5076439;28;20643;-68
2023/01/28 10:35:22;;;;;;;20.00;13.37;;;4.20;1.00;;;;;;5076415;28;20628;-69
2023/01/28 10:37:49;;;;;;;20.30;14.30;;;4.10;1.00;;;;;;5076395;28;20251;-69
2023/01/28 10:40:16;;;;;;;21.33;14.47;;;4.10;1.00;;;;;;5076299;28;20238;-69
2023/01/28 10:42:43;;;;;;;22.27;15.13;;;4.10;1.00;;;;;;5076142;28;20194;-69
2023/01/28 10:45:41;;;;;;;21.33;14.30;;;4.20;1.00;;;;;;5075758;28;20667;-69
2023/01/28 10:48:28;;;;;;;24.33;14.93;;;4.20;1.00;;;;;;5062539;28;20306;-69
2023/01/28 10:51:04;;;;;;;20.20;14.33;;;4.20;1.00;;;;;;5076025;28;20222;-69
2023/01/28 10:53:37;;;;;;;22.23;15.20;;;4.00;1.00;;;;;;5076046;28;20212;-70
2023/01/28 10:56:09;;;;;;;20.80;14.23;;;4.10;1.00;;;;;;5075981;28;20169;-68
2023/01/28 10:58:58;;;;;;;24.83;14.37;;;4.10;1.00;;;;;;5075807;28;20255;-70
2023/01/28 11:01:24;;;;;;;20.23;14.43;;;4.20;1.00;;;;;;5075775;28;20175;-69
2023/01/28 11:03:55;;;;;;;21.33;13.60;;;4.20;1.00;;;;;;5076017;28;20169;-69
2023/01/28 11:06:28;;;;;;;21.63;15.20;;;4.10;1.00;;;;;;5074815;28;20205;-69
2023/01/28 11:08:54;;;;;;;21.13;14.33;;;4.00;1.00;;;;;;5076157;28;20172;-68
2023/01/28 11:11:25;;;;;;;26.33;14.80;;;4.10;1.00;;;;;;5075645;28;20172;-69
2023/01/28 11:13:53;;;;;;;19.50;13.43;;;3.90;1.00;;;;;;5075507;28;20629;-68
2023/01/28 11:16:19;;;;;;;19.83;13.37;;;3.80;1.00;;;;;;5075698;28;20176;-68
2023/01/28 11:18:56;;;;;;;20.50;14.07;;;3.70;1.00;;;;;;5075270;28;20647;-69
2023/01/28 11:21:25;;;;;;;19.10;12.90;;;3.60;1.00;;;;;;5075461;28;20176;-69
2023/01/28 11:23:59;;;;;;;17.80;12.03;;;3.70;1.00;;;;;;5075743;28;20176;-68
2023/01/28 11:26:42;;;;;;;16.47;11.43;;;3.70;1.00;;;;;;5075210;28;20192;-68
2023/01/28 11:29:29;;;;;;;19.80;12.83;;;3.50;1.00;;;;;;5075170;28;20169;-68
2023/01/28 11:31:55;;;;;;;16.37;11.93;;;3.40;1.00;;;;;;5075703;28;20177;-68
2023/01/28 11:34:26;;;;;;;19.93;13.50;;;3.40;1.00;;;;;;5057144;28;20269;-69
2023/01/28 11:37:03;;;;;;;17.47;12.03;;;3.30;1.00;;;;;;5057356;28;20168;-68
2023/01/28 11:39:28;;;;;;;23.27;13.60;;;3.30;1.00;;;;;;5056985;28;20350;-68
2023/01/28 11:42:22;;;;;;;22.90;13.10;;;3.40;1.00;;;;;;5074842;28;20255;-69
2023/01/28 11:44:48;;;;;;;21.40;12.90;;;3.50;1.00;;;;;;5056282;28;20640;-69
2023/01/28 11:47:54;;;;;;;20.03;12.27;;;3.50;1.00;;;;;;5075102;28;20210;-68
2023/01/28 11:50:38;;;;;;;21.80;12.43;;;3.50;1.00;;;;;;5056725;28;20173;-69
2023/01/28 11:53:17;;;;;;;17.47;10.20;;;3.40;1.00;;;;;;5074666;28;20223;-69
2023/01/28 11:55:55;;;;;;;16.67;11.50;;;3.40;1.00;;;;;;5074224;28;20206;-69
2023/01/28 11:58:24;;;;;;;17.47;11.73;;;3.50;1.00;;;;;;5074299;28;20663;-69
2023/01/28 12:01:04;;;;;;;14.73;9.53;;;3.40;1.00;;;;;;5074803;28;20266;-68
2023/01/28 12:03:57;;;;;;;17.50;11.47;;;3.30;1.00;;;;;;5074356;28;20682;-68
2023/01/28 12:06:46;;;;;;;22.17;12.53;;;3.20;1.00;;;;;;5074311;28;20652;-69
2023/01/28 12:09:49;;;;;;;17.50;11.37;;;3.20;1.00;;;;;;5061091;28;20176;-69
2023/01/28 12:12:53;;;;;;;19.40;12.20;;;3.20;1.00;;;;;;5055984;28;20267;-68
2023/01/28 12:15:30;;;;;;;17.30;9.67;;;3.20;1.00;;;;;;5022711;28;20184;-69
2023/01/28 12:18:25;;;;;;;21.77;12.33;;;3.10;1.00;;;;;;5073606;28;20168;-68
2023/01/28 12:20:56;;;;;;;15.43;9.87;;;3.10;1.00;;;;;;5027391;28;20188;-69
2023/01/28 12:23:44;;;;;;;17.93;11.57;;;3.20;1.00;;;;;;5073886;28;20255;-68
2023/01/28 12:26:12;;;;;;;17.30;10.23;;;3.30;1.00;;;;;;5073644;28;20173;-68
2023/01/28 12:29:01;;;;;;;19.07;12.03;;;3.30;1.00;;;;;;5074291;28;20177;-68
2023/01/28 12:31:32;;;;;;;14.20;9.17;;;3.30;1.00;;;;;;5074350;28;20668;-69
2023/01/28 12:34:35;;;;;;;19.50;12.10;;;3.50;1.00;;;;;;5073709;28;20168;-68
2023/01/28 12:37:04;;;;;;;18.50;12.87;;;3.50;1.00;;;;;;5043589;28;20176;-68
2023/01/28 12:39:33;;;;;;;19.50;12.43;;;3.40;1.00;;;;;;5073354;28;20636;-69
2023/01/28 12:42:12;;;;;;;24.57;13.47;;;3.40;1.00;;;;;;5073557;28;20165;-68
2023/01/28 12:44:46;;;;;;;21.67;13.17;;;3.30;1.00;;;;;;5073576;28;20188;-68
2023/01/28 12:47:34;;;;;;;17.83;11.87;;;3.50;1.00;;;;;;5073820;28;20214;-69
2023/01/28 12:50:32;;;;;;;17.67;10.53;;;3.90;1.00;;;;;;5073737;28;20172;-68
2023/01/28 12:53:21;;;;;;;14.30;10.90;;;3.80;1.00;;;;;;5073236;28;20280;-69
2023/01/28 12:55:54;;;;;;;18.40;11.77;;;4.00;1.00;;;;;;5055629;28;20659;-68
2023/01/28 12:58:30;;;;;;;15.97;11.23;;;3.90;1.00;;;;;;5073881;28;20173;-69
2023/01/28 13:01:03;;;;;;;17.80;11.90;;;4.10;1.00;;;;;;5073498;28;20183;-69
2023/01/28 13:03:39;;;;;;;16.33;12.07;;;4.10;1.00;;;;;;5073429;28;20177;-69
2023/01/28 13:06:28;;;;;;;17.83;11.63;;;4.10;1.00;;;;;;5073197;28;20524;-69
2023/01/28 13:09:02;;;;;;;17.33;12.17;;;4.20;1.00;;;;;;5073220;28;20207;-69
2023/01/28 13:11:35;;;;;;;18.10;11.60;;;4.10;1.00;;;;;;5073041;28;20226;-69
2023/01/28 13:14:02;;;;;;;18.13;11.87;;;4.10;1.00;;;;;;5073312;28;20208;-69
2023/01/28 13:16:28;;;;;;;15.60;10.97;;;4.10;1.00;;;;;;5073162;28;20169;-69
2023/01/28 13:19:19;;;;;;;18.20;12.43;;;4.20;1.00;;;;;;5073340;28;20667;-69
2023/01/28 13:21:46;;;;;;;16.77;11.30;;;4.30;1.00;;;;;;5073030;28;20196;-69
2023/01/28 13:24:14;;;;;;;17.77;11.93;;;4.80;1.00;;;;;;5072873;28;20160;-69
2023/01/28 13:26:53;;;;;;;16.60;10.00;;;4.90;99.90;;;;;;5072709;28;20250;-69
2023/01/28 13:29:28;;;;;;;14.53;10.83;;;4.60;99.90;;;;;;5072709;28;20191;-69
2023/01/28 13:31:56;;;;;;;17.80;12.10;;;4.40;99.90;;;;;;5073368;28;20175;-68
2023/01/28 13:34:35;;;;;;;16.70;12.13;;;4.20;99.90;;;;;;5072538;28;20239;-69
2023/01/28 13:37:20;;;;;;;16.90;12.50;;;4.30;99.90;;;;;;5073030;28;20188;-68
2023/01/28 13:39:50;;;;;;;18.57;12.73;;;4.40;99.90;;;;;;5072923;28;20272;-68